Terminal Aerodrome Forecast
Issued by NWS

Home | Current Version | Previous Version | Text Only | Print | Product List | Glossary On
Versions: 1 2 3 4 5 6 7 8 9 10 11 12 13 14
791
FTUS42 TJSJ 241138
TAFJMZ
TAF
TJMZ 241138Z 2412/2512 06007KT P6SM FEW040
     FM241400 09008KT P6SM SCT040
     FM241700 27010KT P6SM VCSH SCT025 BKN040
     FM242300 06005KT P6SM FEW060
      AMD NOT SKED=

USA.gov is the U.S. government's official web portal to all federal, state and local government web resources and services.